PRIVATE WETTERSTATION BILLIGHEIM-ALLFELD                       ZURCK
Wetterdaten: Samstag, 09.01.2016
Datum Zeit Temp. A. Temp. A. min Temp. A. max Feuchte A. Luftdruck Regen Wind Richtung Richtung Sonnenschein ET Solar Taupunkt Windchill Windben Empfang
09.01.2016 00:00 0,4 C 0,4 C 0,4 C 91 % 1004,2 hPa 0,0 l/m 0,0 km/h (0 Bft) N 0 0 min 0,000 mm 0 W/m -0,9 C 0,4 C 0,0 km/h (0 Bft) 98 %
09.01.2016 00:10 0,4 C 0,4 C 0,4 C 91 % 1004,0 hPa 0,0 l/m 0,0 km/h (0 Bft) N 0 0 min 0,000 mm 0 W/m -0,9 C 0,4 C 0,0 km/h (0 Bft) 99 %
09.01.2016 00:20 0,3 C 0,3 C 0,4 C 91 % 1004,1 hPa 0,0 l/m 1,6 km/h (1 Bft) NW 315 0 min 0,000 mm 0 W/m -1,0 C 0,3 C 4,8 km/h (1 Bft) 100 %
09.01.2016 00:30 0,0 C 0,0 C 0,3 C 91 % 1004,2 hPa 0,0 l/m 1,6 km/h (1 Bft) NW 315 0 min 0,000 mm 0 W/m -1,3 C 0,0 C 3,2 km/h (1 Bft) 100 %
09.01.2016 00:40 -0,2 C -0,2 C -0,1 C 91 % 1004,2 hPa 0,0 l/m 1,6 km/h (1 Bft) NW 315 0 min 0,000 mm 0 W/m -1,5 C -0,2 C 4,8 km/h (1 Bft) 100 %
09.01.2016 00:50 -0,2 C -0,2 C -0,2 C 91 % 1004,2 hPa 0,0 l/m 0,0 km/h (0 Bft) N 0 0 min 0,000 mm 0 W/m -1,5 C -0,2 C 0,0 km/h (0 Bft) 100 %
09.01.2016 01:00 -0,2 C -0,2 C -0,1 C 91 % 1004,2 hPa 0,0 l/m 0,0 km/h (0 Bft) N 0 0 min 0,000 mm 0 W/m -1,5 C -0,2 C 0,0 km/h (0 Bft) 89 %
09.01.2016 01:10 -0,3 C -0,3 C -0,1 C 91 % 1004,2 hPa 0,0 l/m 0,0 km/h (0 Bft) NW 315 0 min 0,000 mm 0 W/m -1,6 C -0,3 C 3,2 km/h (1 Bft) 100 %
09.01.2016 01:20 -0,4 C -0,4 C -0,3 C 91 % 1004,3 hPa 0,0 l/m 0,0 km/h (0 Bft) NW 315 0 min 0,000 mm 0 W/m -1,7 C -0,4 C 1,6 km/h (1 Bft) 99 %
09.01.2016 01:30 -0,6 C -0,6 C -0,4 C 91 % 1004,4 hPa 0,0 l/m 0,0 km/h (0 Bft) N 0 0 min 0,000 mm 0 W/m -1,9 C -0,6 C 0,0 km/h (0 Bft) 100 %
09.01.2016 01:40 -0,3 C -0,6 C -0,3 C 92 % 1004,4 hPa 0,0 l/m 0,0 km/h (0 Bft) N 0 0 min 0,000 mm 0 W/m -1,4 C -0,3 C 0,0 km/h (0 Bft) 100 %
09.01.2016 01:50 0,1 C -0,3 C 0,1 C 91 % 1004,3 hPa 0,0 l/m 1,6 km/h (1 Bft) NW 315 0 min 0,000 mm 0 W/m -1,2 C 0,1 C 3,2 km/h (1 Bft) 100 %
09.01.2016 02:00 0,2 C 0,2 C 0,3 C 91 % 1004,4 hPa 0,0 l/m 0,0 km/h (0 Bft) NW 315 0 min 0,000 mm 0 W/m -1,1 C 0,2 C 1,6 km/h (1 Bft) 100 %
09.01.2016 02:10 -0,1 C -0,1 C 0,2 C 92 % 1004,3 hPa 0,0 l/m 0,0 km/h (0 Bft) N 0 0 min 0,000 mm 0 W/m -1,2 C -0,1 C 0,0 km/h (0 Bft) 100 %
09.01.2016 02:20 -0,1 C -0,1 C -0,1 C 91 % 1004,3 hPa 0,0 l/m 0,0 km/h (0 Bft) N 0 0 min 0,000 mm 0 W/m -1,4 C -0,1 C 0,0 km/h (0 Bft) 91 %
09.01.2016 02:30 -0,2 C -0,2 C -0,1 C 91 % 1004,4 hPa 0,0 l/m 1,6 km/h (1 Bft) NW 315 0 min 0,000 mm 0 W/m -1,5 C -0,2 C 3,2 km/h (1 Bft) 100 %
09.01.2016 02:40 -0,2 C -0,2 C -0,2 C 91 % 1004,3 hPa 0,0 l/m 0,0 km/h (0 Bft) N 0 0 min 0,000 mm 0 W/m -1,5 C -0,2 C 0,0 km/h (0 Bft) 100 %
09.01.2016 02:50 -0,1 C -0,2 C -0,1 C 91 % 1004,3 hPa 0,0 l/m 0,0 km/h (0 Bft) N 0 0 min 0,000 mm 0 W/m -1,4 C -0,1 C 0,0 km/h (0 Bft) 100 %
09.01.2016 03:00 0,0 C -0,1 C 0,0 C 92 % 1004,3 hPa 0,0 l/m 0,0 km/h (0 Bft) N 0 0 min 0,000 mm 0 W/m -1,1 C 0,0 C 0,0 km/h (0 Bft) 100 %
09.01.2016 03:10 0,0 C 0,0 C 0,1 C 92 % 1004,5 hPa 0,0 l/m 0,0 km/h (0 Bft) N 0 0 min 0,000 mm 0 W/m -1,1 C 0,0 C 0,0 km/h (0 Bft) 100 %
09.01.2016 03:20 -0,1 C -0,1 C 0,0 C 92 % 1004,4 hPa 0,0 l/m 0,0 km/h (0 Bft) NW 315 0 min 0,000 mm 0 W/m -1,2 C -0,1 C 1,6 km/h (1 Bft) 100 %
09.01.2016 03:30 -0,1 C -0,1 C -0,1 C 92 % 1004,3 hPa 0,0 l/m 0,0 km/h (0 Bft) N 0 0 min 0,000 mm 0 W/m -1,2 C -0,1 C 0,0 km/h (0 Bft) 100 %
09.01.2016 03:40 -0,1 C -0,2 C -0,1 C 91 % 1004,3 hPa 0,0 l/m 0,0 km/h (0 Bft) N 0 0 min 0,000 mm 0 W/m -1,4 C -0,1 C 0,0 km/h (0 Bft) 91 %
09.01.2016 03:50 -0,2 C -0,2 C -0,1 C 92 % 1004,3 hPa 0,0 l/m 0,0 km/h (0 Bft) NW 315 0 min 0,000 mm 0 W/m -1,3 C -0,2 C 1,6 km/h (1 Bft) 100 %
09.01.2016 04:00 -0,3 C -0,3 C -0,2 C 92 % 1004,3 hPa 0,0 l/m 0,0 km/h (0 Bft) N 0 0 min 0,000 mm 0 W/m -1,4 C -0,3 C 0,0 km/h (0 Bft) 100 %
09.01.2016 04:10 -0,4 C -0,4 C -0,3 C 91 % 1004,2 hPa 0,0 l/m 0,0 km/h (0 Bft) N 0 0 min 0,000 mm 0 W/m -1,7 C -0,4 C 0,0 km/h (0 Bft) 100 %
09.01.2016 04:20 -0,6 C -0,6 C -0,4 C 92 % 1004,1 hPa 0,0 l/m 0,0 km/h (0 Bft) NW 315 0 min 0,000 mm 0 W/m -1,7 C -0,6 C 3,2 km/h (1 Bft) 100 %
09.01.2016 04:30 -0,7 C -0,7 C -0,6 C 92 % 1004,2 hPa 0,0 l/m 0,0 km/h (0 Bft) NW 315 0 min 0,000 mm 0 W/m -1,8 C -0,7 C 1,6 km/h (1 Bft) 100 %
09.01.2016 04:40 -0,8 C -0,8 C -0,7 C 91 % 1004,2 hPa 0,0 l/m 0,0 km/h (0 Bft) NW 315 0 min 0,000 mm 0 W/m -2,1 C -0,8 C 3,2 km/h (1 Bft) 100 %
09.01.2016 04:50 -0,7 C -0,8 C -0,7 C 92 % 1004,2 hPa 0,0 l/m 0,0 km/h (0 Bft) NW 315 0 min 0,000 mm 0 W/m -1,8 C -0,7 C 1,6 km/h (1 Bft) 100 %
09.01.2016 05:00 -0,4 C -0,7 C -0,4 C 91 % 1004,2 hPa 0,0 l/m 0,0 km/h (0 Bft) NW 315 0 min 0,000 mm 0 W/m -1,7 C -0,4 C 3,2 km/h (1 Bft) 91 %
09.01.2016 05:10 -0,1 C -0,4 C -0,1 C 91 % 1004,2 hPa 0,0 l/m 0,0 km/h (0 Bft) N 0 0 min 0,000 mm 0 W/m -1,4 C -0,1 C 0,0 km/h (0 Bft) 100 %
09.01.2016 05:20 -0,2 C -0,2 C -0,1 C 91 % 1004,2 hPa 0,0 l/m 0,0 km/h (0 Bft) N 0 0 min 0,000 mm 0 W/m -1,5 C -0,2 C 0,0 km/h (0 Bft) 100 %
09.01.2016 05:30 -0,4 C -0,4 C -0,2 C 92 % 1004,3 hPa 0,0 l/m 0,0 km/h (0 Bft) N 0 0 min 0,000 mm 0 W/m -1,5 C -0,4 C 0,0 km/h (0 Bft) 100 %
09.01.2016 05:40 -0,5 C -0,6 C -0,4 C 92 % 1004,3 hPa 0,0 l/m 0,0 km/h (0 Bft) N 0 0 min 0,000 mm 0 W/m -1,6 C -0,5 C 0,0 km/h (0 Bft) 100 %
09.01.2016 05:50 -0,7 C -0,7 C -0,6 C 92 % 1004,5 hPa 0,0 l/m 0,0 km/h (0 Bft) N 0 0 min 0,000 mm 0 W/m -1,8 C -0,7 C 0,0 km/h (0 Bft) 100 %
09.01.2016 06:00 -0,7 C -0,7 C -0,7 C 91 % 1004,4 hPa 0,0 l/m 0,0 km/h (0 Bft) N 0 0 min 0,000 mm 0 W/m -2,0 C -0,7 C 0,0 km/h (0 Bft) 100 %
09.01.2016 06:10 -0,8 C -0,8 C -0,7 C 91 % 1004,5 hPa 0,0 l/m 0,0 km/h (0 Bft) N 0 0 min 0,000 mm 0 W/m -2,1 C -0,8 C 0,0 km/h (0 Bft) 100 %
09.01.2016 06:20 -0,8 C -0,9 C -0,8 C 92 % 1004,4 hPa 0,0 l/m 0,0 km/h (0 Bft) N 0 0 min 0,000 mm 0 W/m -1,9 C -0,8 C 0,0 km/h (0 Bft) 90 %
09.01.2016 06:30 -0,9 C -0,9 C -0,8 C 92 % 1004,4 hPa 0,0 l/m 0,0 km/h (0 Bft) NW 315 0 min 0,000 mm 0 W/m -2,0 C -0,9 C 3,2 km/h (1 Bft) 100 %
09.01.2016 06:40 -1,0 C -1,0 C -0,9 C 92 % 1004,4 hPa 0,0 l/m 0,0 km/h (0 Bft) NW 315 0 min 0,000 mm 0 W/m -2,1 C -1,0 C 3,2 km/h (1 Bft) 100 %
09.01.2016 06:50 -1,1 C -1,1 C -1,0 C 92 % 1004,2 hPa 0,0 l/m 0,0 km/h (0 Bft) N 0 0 min 0,000 mm 0 W/m -2,2 C -1,1 C 0,0 km/h (0 Bft) 100 %
09.01.2016 07:00 -1,1 C -1,1 C -1,1 C 91 % 1004,2 hPa 0,0 l/m 0,0 km/h (0 Bft) N 0 0 min 0,000 mm 0 W/m -2,4 C -1,1 C 0,0 km/h (0 Bft) 100 %
09.01.2016 07:10 -1,1 C -1,1 C -1,1 C 92 % 1004,1 hPa 0,0 l/m 0,0 km/h (0 Bft) N 0 0 min 0,000 mm 0 W/m -2,2 C -1,1 C 0,0 km/h (0 Bft) 100 %
09.01.2016 07:20 -1,1 C -1,1 C -1,0 C 92 % 1004,0 hPa 0,0 l/m 0,0 km/h (0 Bft) N 0 0 min 0,000 mm 0 W/m -2,2 C -1,1 C 0,0 km/h (0 Bft) 100 %
09.01.2016 07:30 -1,1 C -1,1 C -1,0 C 92 % 1004,1 hPa 0,0 l/m 0,0 km/h (0 Bft) NW 315 0 min 0,000 mm 0 W/m -2,2 C -1,1 C 3,2 km/h (1 Bft) 100 %
09.01.2016 07:40 -1,0 C -1,1 C -1,0 C 92 % 1004,3 hPa 0,0 l/m 0,0 km/h (0 Bft) N 0 0 min 0,000 mm 0 W/m -2,1 C -1,0 C 0,0 km/h (0 Bft) 100 %
09.01.2016 07:50 -1,0 C -1,1 C -1,0 C 92 % 1004,3 hPa 0,0 l/m 0,0 km/h (0 Bft) NW 315 0 min 0,000 mm 0 W/m -2,1 C -1,0 C 1,6 km/h (1 Bft) 100 %
09.01.2016 08:00 -1,0 C -1,1 C -1,0 C 92 % 1004,3 hPa 0,0 l/m 0,0 km/h (0 Bft) NW 315 0 min 0,000 mm 0 W/m -2,1 C -1,0 C 3,2 km/h (1 Bft) 100 %
09.01.2016 08:10 -1,0 C -1,0 C -1,0 C 92 % 1004,3 hPa 0,0 l/m 0,0 km/h (0 Bft) N 0 0 min 0,000 mm 0 W/m -2,1 C -1,0 C 0,0 km/h (0 Bft) 100 %
09.01.2016 08:20 -1,0 C -1,0 C -1,0 C 92 % 1004,2 hPa 0,0 l/m 0,0 km/h (0 Bft) N 0 0 min 0,000 mm 0 W/m -2,1 C -1,0 C 0,0 km/h (0 Bft) 100 %
09.01.2016 08:30 -0,9 C -1,0 C -0,9 C 92 % 1004,2 hPa 0,0 l/m 0,0 km/h (0 Bft) NW 315 0 min 0,000 mm 5 W/m -2,0 C -0,9 C 1,6 km/h (1 Bft) 100 %
09.01.2016 08:40 -0,9 C -1,0 C -0,9 C 92 % 1004,4 hPa 0,0 l/m 0,0 km/h (0 Bft) N 0 0 min 0,000 mm 9 W/m -2,0 C -0,9 C 0,0 km/h (0 Bft) 100 %
09.01.2016 08:50 -1,0 C -1,0 C -0,9 C 92 % 1004,4 hPa 0,0 l/m 0,0 km/h (0 Bft) N 0 0 min 0,000 mm 19 W/m -2,1 C -1,0 C 0,0 km/h (0 Bft) 100 %
09.01.2016 09:00 -0,9 C -1,0 C -0,9 C 92 % 1004,3 hPa 0,0 l/m 0,0 km/h (0 Bft) N 0 0 min 0,000 mm 25 W/m -2,0 C -0,9 C 0,0 km/h (0 Bft) 90 %
09.01.2016 09:10 -0,9 C -0,9 C -0,8 C 91 % 1004,3 hPa 0,0 l/m 0,0 km/h (0 Bft) NW 315 0 min 0,000 mm 28 W/m -2,2 C -0,9 C 1,6 km/h (1 Bft) 100 %
09.01.2016 09:20 -0,8 C -0,8 C -0,8 C 91 % 1004,4 hPa 0,0 l/m 0,0 km/h (0 Bft) NW 315 0 min 0,000 mm 32 W/m -2,1 C -0,8 C 3,2 km/h (1 Bft) 100 %
09.01.2016 09:30 -0,7 C -0,8 C -0,7 C 92 % 1004,4 hPa 0,0 l/m 0,0 km/h (0 Bft) NW 315 0 min 0,000 mm 33 W/m -1,8 C -0,7 C 1,6 km/h (1 Bft) 100 %
09.01.2016 09:40 -0,7 C -0,7 C -0,7 C 92 % 1004,5 hPa 0,0 l/m 0,0 km/h (0 Bft) N 0 0 min 0,000 mm 35 W/m -1,8 C -0,7 C 0,0 km/h (0 Bft) 100 %
09.01.2016 09:50 -0,6 C -0,7 C -0,6 C 92 % 1004,5 hPa 0,0 l/m 0,0 km/h (0 Bft) N 0 0 min 0,000 mm 46 W/m -1,7 C -0,6 C 0,0 km/h (0 Bft) 100 %
09.01.2016 10:00 -0,5 C -0,6 C -0,5 C 91 % 1004,5 hPa 0,0 l/m 0,0 km/h (0 Bft) NW 315 0 min 0,000 mm 47 W/m -1,8 C -0,5 C 1,6 km/h (1 Bft) 100 %
09.01.2016 10:10 -0,4 C -0,5 C -0,4 C 91 % 1004,5 hPa 0,0 l/m 0,0 km/h (0 Bft) NW 315 0 min 0,000 mm 49 W/m -1,7 C -0,4 C 3,2 km/h (1 Bft) 100 %
09.01.2016 10:20 -0,3 C -0,4 C -0,3 C 91 % 1004,5 hPa 0,0 l/m 0,0 km/h (0 Bft) NW 315 0 min 0,000 mm 54 W/m -1,6 C -0,3 C 3,2 km/h (1 Bft) 88 %
09.01.2016 10:30 -0,2 C -0,3 C -0,2 C 92 % 1004,5 hPa 0,0 l/m 1,6 km/h (1 Bft) NW 315 0 min 0,000 mm 67 W/m -1,3 C -0,2 C 3,2 km/h (1 Bft) 100 %
09.01.2016 10:40 -0,1 C -0,2 C -0,1 C 91 % 1004,5 hPa 0,0 l/m 0,0 km/h (0 Bft) N 0 0 min 0,000 mm 72 W/m -1,4 C -0,1 C 0,0 km/h (0 Bft) 100 %
09.01.2016 10:50 0,1 C -0,1 C 0,1 C 92 % 1004,3 hPa 0,0 l/m 0,0 km/h (0 Bft) N 0 0 min 0,000 mm 69 W/m -1,0 C 0,1 C 0,0 km/h (0 Bft) 100 %
09.01.2016 11:00 0,2 C 0,1 C 0,2 C 91 % 1004,4 hPa 0,0 l/m 0,0 km/h (0 Bft) NW 315 0 min 0,025 mm 72 W/m -1,1 C 0,2 C 1,6 km/h (1 Bft) 100 %
09.01.2016 11:10 0,3 C 0,2 C 0,3 C 91 % 1004,4 hPa 0,0 l/m 0,0 km/h (0 Bft) N 0 0 min 0,000 mm 79 W/m -1,0 C 0,3 C 0,0 km/h (0 Bft) 100 %
09.01.2016 11:20 0,4 C 0,3 C 0,4 C 92 % 1004,4 hPa 0,0 l/m 0,0 km/h (0 Bft) N 0 0 min 0,000 mm 72 W/m -0,7 C 0,4 C 0,0 km/h (0 Bft) 100 %
09.01.2016 11:30 0,5 C 0,4 C 0,5 C 91 % 1004,2 hPa 0,0 l/m 0,0 km/h (0 Bft) N 0 0 min 0,000 mm 72 W/m -0,8 C 0,5 C 0,0 km/h (0 Bft) 100 %
09.01.2016 11:40 0,6 C 0,5 C 0,6 C 91 % 1004,1 hPa 0,0 l/m 0,0 km/h (0 Bft) N 0 0 min 0,000 mm 74 W/m -0,7 C 0,6 C 0,0 km/h (0 Bft) 100 %
09.01.2016 11:50 0,7 C 0,6 C 0,7 C 92 % 1004,0 hPa 0,0 l/m 0,0 km/h (0 Bft) N 0 0 min 0,000 mm 76 W/m -0,4 C 0,7 C 0,0 km/h (0 Bft) 92 %
09.01.2016 12:00 0,9 C 0,7 C 0,9 C 91 % 1004,1 hPa 0,0 l/m 0,0 km/h (0 Bft) NW 315 0 min 0,025 mm 83 W/m -0,4 C 0,9 C 1,6 km/h (1 Bft) 100 %
09.01.2016 12:10 1,1 C 0,9 C 1,1 C 92 % 1003,9 hPa 0,0 l/m 0,0 km/h (0 Bft) N 0 0 min 0,000 mm 86 W/m -0,1 C 1,1 C 0,0 km/h (0 Bft) 100 %
09.01.2016 12:20 1,2 C 0,9 C 1,2 C 91 % 1003,8 hPa 0,0 l/m 0,0 km/h (0 Bft) NW 325 0 min 0,001 mm 69 W/m -0,1 C 1,2 C 0,0 km/h (0 Bft) 100 %
09.01.2016 12:30 1,4 C 1,2 C 1,4 C 92 % 1003,7 hPa 0,0 l/m 0,0 km/h (0 Bft) NW 325 0 min 0,000 mm 74 W/m 0,2 C 1,4 C 0,0 km/h (0 Bft) 100 %
09.01.2016 12:40 1,6 C 1,4 C 1,6 C 91 % 1003,5 hPa 0,0 l/m 0,4 km/h (0 Bft) NW 325 0 min 0,000 mm 77 W/m 0,3 C 1,6 C 3,2 km/h (1 Bft) 100 %
09.01.2016 12:50 1,8 C 1,6 C 1,8 C 92 % 1003,5 hPa 0,0 l/m 0,8 km/h (0 Bft) NW 325 0 min 0,000 mm 69 W/m 0,6 C 1,8 C 3,2 km/h (1 Bft) 100 %
09.01.2016 13:00 2,0 C 1,8 C 2,0 C 91 % 1003,4 hPa 0,0 l/m 0,0 km/h (0 Bft) NW 325 0 min 0,025 mm 67 W/m 0,7 C 2,0 C 0,0 km/h (0 Bft) 100 %
09.01.2016 13:10 2,1 C 2,0 C 2,2 C 92 % 1003,5 hPa 0,0 l/m 0,0 km/h (0 Bft) NW 325 0 min 0,000 mm 67 W/m 0,9 C 2,1 C 0,0 km/h (0 Bft) 99 %
09.01.2016 13:20 2,3 C 2,1 C 2,3 C 91 % 1003,3 hPa 0,0 l/m 0,2 km/h (0 Bft) NW 325 0 min 0,000 mm 77 W/m 1,0 C 2,3 C 3,2 km/h (1 Bft) 100 %
09.01.2016 13:30 2,5 C 2,3 C 2,5 C 91 % 1003,3 hPa 0,0 l/m 0,3 km/h (0 Bft) NW 325 0 min 0,000 mm 77 W/m 1,2 C 2,5 C 3,2 km/h (1 Bft) 100 %
09.01.2016 13:40 2,6 C 2,5 C 2,6 C 91 % 1003,2 hPa 0,0 l/m 0,0 km/h (0 Bft) NW 325 0 min 0,000 mm 79 W/m 1,3 C 2,6 C 0,0 km/h (0 Bft) 100 %
09.01.2016 13:50 2,7 C 2,6 C 2,7 C 91 % 1003,3 hPa 0,0 l/m 0,0 km/h (0 Bft) NW 325 0 min 0,000 mm 81 W/m 1,4 C 2,7 C 0,0 km/h (0 Bft) 100 %
09.01.2016 14:00 2,8 C 2,7 C 2,8 C 91 % 1003,3 hPa 0,0 l/m 0,0 km/h (0 Bft) NW 325 0 min 0,026 mm 76 W/m 1,5 C 2,8 C 0,0 km/h (0 Bft) 100 %
09.01.2016 14:10 2,9 C 2,8 C 2,9 C 91 % 1003,3 hPa 0,0 l/m 0,0 km/h (0 Bft) NW 325 0 min 0,000 mm 79 W/m 1,6 C 2,9 C 0,0 km/h (0 Bft) 100 %
09.01.2016 14:20 3,1 C 2,9 C 3,1 C 91 % 1003,4 hPa 0,0 l/m 0,0 km/h (0 Bft) NW 325 0 min 0,000 mm 69 W/m 1,8 C 3,1 C 0,0 km/h (0 Bft) 99 %
09.01.2016 14:30 3,2 C 3,1 C 3,2 C 91 % 1003,3 hPa 0,0 l/m 0,0 km/h (0 Bft) NW 325 0 min 0,000 mm 58 W/m 1,9 C 3,2 C 1,6 km/h (1 Bft) 100 %
09.01.2016 14:40 3,3 C 3,2 C 3,3 C 91 % 1003,4 hPa 0,0 l/m 0,0 km/h (0 Bft) NW 325 0 min 0,000 mm 49 W/m 2,0 C 3,3 C 0,0 km/h (0 Bft) 100 %
09.01.2016 14:50 3,5 C 3,3 C 3,5 C 91 % 1003,4 hPa 0,0 l/m 0,0 km/h (0 Bft) NW 325 0 min 0,000 mm 58 W/m 2,2 C 3,5 C 0,0 km/h (0 Bft) 100 %
09.01.2016 15:00 3,6 C 3,5 C 3,6 C 91 % 1003,3 hPa 0,0 l/m 0,0 km/h (0 Bft) NW 325 0 min 0,025 mm 67 W/m 2,3 C 3,6 C 0,0 km/h (0 Bft) 100 %
09.01.2016 15:10 3,8 C 3,6 C 3,8 C 91 % 1003,3 hPa 0,0 l/m 0,0 km/h (0 Bft) NW 325 0 min 0,000 mm 40 W/m 2,5 C 3,8 C 0,0 km/h (0 Bft) 100 %
09.01.2016 15:20 3,9 C 3,8 C 3,9 C 92 % 1003,3 hPa 0,0 l/m 0,0 km/h (0 Bft) NW 325 0 min 0,000 mm 33 W/m 2,7 C 3,9 C 0,0 km/h (0 Bft) 100 %
09.01.2016 15:30 4,1 C 3,9 C 4,1 C 91 % 1003,3 hPa 0,0 l/m 0,0 km/h (0 Bft) NW 325 0 min 0,000 mm 28 W/m 2,8 C 4,1 C 0,0 km/h (0 Bft) 100 %
09.01.2016 15:40 4,1 C 4,1 C 4,1 C 91 % 1003,4 hPa 0,0 l/m 0,3 km/h (0 Bft) NW 325 0 min 0,000 mm 28 W/m 2,8 C 4,1 C 1,6 km/h (1 Bft) 91 %
09.01.2016 15:50 4,1 C 4,1 C 4,2 C 92 % 1003,3 hPa 0,0 l/m 0,0 km/h (0 Bft) NW 325 0 min 0,000 mm 21 W/m 2,9 C 4,1 C 0,0 km/h (0 Bft) 100 %
09.01.2016 16:00 4,1 C 4,1 C 4,1 C 92 % 1003,3 hPa 0,0 l/m 0,0 km/h (0 Bft) NW 325 0 min 0,025 mm 16 W/m 2,9 C 4,1 C 0,0 km/h (0 Bft) 100 %
09.01.2016 16:10 4,1 C 4,1 C 4,1 C 92 % 1003,5 hPa 0,0 l/m 0,0 km/h (0 Bft) NW 325 0 min 0,000 mm 11 W/m 2,9 C 4,1 C 0,0 km/h (0 Bft) 100 %
09.01.2016 16:20 4,2 C 4,1 C 4,2 C 92 % 1003,6 hPa 0,0 l/m 0,2 km/h (0 Bft) NW 325 0 min 0,000 mm 7 W/m 3,0 C 4,2 C 1,6 km/h (1 Bft) 100 %
09.01.2016 16:30 4,2 C 4,2 C 4,2 C 92 % 1003,6 hPa 0,0 l/m 0,0 km/h (0 Bft) NW 325 0 min 0,000 mm 0 W/m 3,0 C 4,2 C 0,0 km/h (0 Bft) 100 %
09.01.2016 16:40 4,1 C 4,1 C 4,2 C 92 % 1003,6 hPa 0,0 l/m 0,0 km/h (0 Bft) NW 325 0 min 0,000 mm 0 W/m 2,9 C 4,1 C 0,0 km/h (0 Bft) 92 %
09.01.2016 16:50 4,1 C 4,1 C 4,1 C 92 % 1003,4 hPa 0,0 l/m 0,0 km/h (0 Bft) NW 325 0 min 0,000 mm 0 W/m 2,9 C 4,1 C 0,0 km/h (0 Bft) 100 %
09.01.2016 17:00 4,1 C 4,1 C 4,1 C 92 % 1003,4 hPa 0,0 l/m 0,0 km/h (0 Bft) NW 325 0 min 0,000 mm 0 W/m 2,9 C 4,1 C 1,6 km/h (1 Bft) 100 %
09.01.2016 17:10 4,0 C 4,0 C 4,1 C 92 % 1003,3 hPa 0,0 l/m 1,1 km/h (1 Bft) NW 325 0 min 0,000 mm 0 W/m 2,8 C 4,0 C 3,2 km/h (1 Bft) 100 %
09.01.2016 17:20 3,9 C 3,9 C 4,0 C 92 % 1003,1 hPa 0,0 l/m 0,3 km/h (0 Bft) NW 325 0 min 0,000 mm 0 W/m 2,7 C 3,9 C 3,2 km/h (1 Bft) 100 %
09.01.2016 17:30 3,9 C 3,9 C 3,9 C 92 % 1003,0 hPa 0,0 l/m 0,5 km/h (0 Bft) NW 325 0 min 0,000 mm 0 W/m 2,7 C 3,9 C 3,2 km/h (1 Bft) 100 %
09.01.2016 17:40 3,9 C 3,9 C 3,9 C 92 % 1003,0 hPa 0,0 l/m 0,0 km/h (0 Bft) NW 325 0 min 0,000 mm 0 W/m 2,7 C 3,9 C 0,0 km/h (0 Bft) 100 %
09.01.2016 17:50 3,9 C 3,9 C 3,9 C 92 % 1003,0 hPa 0,0 l/m 0,0 km/h (0 Bft) NW 325 0 min 0,000 mm 0 W/m 2,7 C 3,9 C 0,0 km/h (0 Bft) 100 %
09.01.2016 18:00 3,9 C 3,9 C 3,9 C 92 % 1002,9 hPa 0,0 l/m 0,0 km/h (0 Bft) NW 325 0 min 0,000 mm 0 W/m 2,7 C 3,9 C 0,0 km/h (0 Bft) 100 %
09.01.2016 18:10 3,8 C 3,8 C 3,9 C 92 % 1003,0 hPa 0,0 l/m 0,0 km/h (0 Bft) NW 325 0 min 0,000 mm 0 W/m 2,6 C 3,8 C 0,0 km/h (0 Bft) 100 %
09.01.2016 18:20 3,8 C 3,8 C 3,8 C 92 % 1003,0 hPa 0,0 l/m 0,0 km/h (0 Bft) NW 325 0 min 0,000 mm 0 W/m 2,6 C 3,8 C 0,0 km/h (0 Bft) 100 %
09.01.2016 18:30 3,8 C 3,8 C 3,8 C 92 % 1003,0 hPa 0,0 l/m 0,0 km/h (0 Bft) NW 325 0 min 0,000 mm 0 W/m 2,6 C 3,8 C 1,6 km/h (1 Bft) 91 %
09.01.2016 18:40 3,8 C 3,8 C 3,8 C 92 % 1002,9 hPa 0,0 l/m 0,0 km/h (0 Bft) NW 325 0 min 0,000 mm 0 W/m 2,6 C 3,8 C 0,0 km/h (0 Bft) 100 %
09.01.2016 18:50 3,8 C 3,8 C 3,8 C 92 % 1002,7 hPa 0,0 l/m 0,2 km/h (0 Bft) NW 325 0 min 0,000 mm 0 W/m 2,6 C 3,8 C 1,6 km/h (1 Bft) 100 %
09.01.2016 19:00 3,8 C 3,8 C 3,8 C 92 % 1002,5 hPa 0,0 l/m 0,4 km/h (0 Bft) NW 325 0 min 0,000 mm 0 W/m 2,6 C 3,8 C 3,2 km/h (1 Bft) 100 %
09.01.2016 19:10 3,8 C 3,8 C 3,8 C 92 % 1002,6 hPa 0,0 l/m 0,0 km/h (0 Bft) NW 325 0 min 0,000 mm 0 W/m 2,6 C 3,8 C 1,6 km/h (1 Bft) 100 %
09.01.2016 19:20 3,8 C 3,7 C 3,8 C 92 % 1002,4 hPa 0,0 l/m 0,0 km/h (0 Bft) NW 325 0 min 0,000 mm 0 W/m 2,6 C 3,8 C 1,6 km/h (1 Bft) 100 %
09.01.2016 19:30 3,8 C 3,7 C 3,8 C 92 % 1002,5 hPa 0,0 l/m 0,1 km/h (0 Bft) NW 325 0 min 0,000 mm 0 W/m 2,6 C 3,8 C 1,6 km/h (1 Bft) 100 %
09.01.2016 19:40 3,7 C 3,7 C 3,8 C 92 % 1002,5 hPa 0,0 l/m 0,0 km/h (0 Bft) NW 325 0 min 0,000 mm 0 W/m 2,5 C 3,7 C 0,0 km/h (0 Bft) 100 %
09.01.2016 19:50 3,7 C 3,7 C 3,8 C 92 % 1002,3 hPa 0,0 l/m 0,2 km/h (0 Bft) NW 325 0 min 0,000 mm 0 W/m 2,5 C 3,7 C 3,2 km/h (1 Bft) 100 %
09.01.2016 20:00 3,7 C 3,7 C 3,7 C 92 % 1002,3 hPa 0,0 l/m 0,5 km/h (0 Bft) NW 325 0 min 0,000 mm 0 W/m 2,5 C 3,7 C 3,2 km/h (1 Bft) 100 %
09.01.2016 20:10 3,7 C 3,7 C 3,7 C 92 % 1002,0 hPa 0,0 l/m 0,0 km/h (0 Bft) NW 325 0 min 0,000 mm 0 W/m 2,5 C 3,7 C 1,6 km/h (1 Bft) 100 %
09.01.2016 20:20 3,6 C 3,6 C 3,7 C 92 % 1002,1 hPa 0,0 l/m 0,0 km/h (0 Bft) NW 325 0 min 0,000 mm 0 W/m 2,4 C 3,6 C 0,0 km/h (0 Bft) 91 %
09.01.2016 20:30 3,6 C 3,5 C 3,6 C 92 % 1002,1 hPa 0,0 l/m 0,1 km/h (0 Bft) NW 325 0 min 0,000 mm 0 W/m 2,4 C 3,6 C 1,6 km/h (1 Bft) 100 %
09.01.2016 20:40 3,4 C 3,4 C 3,6 C 92 % 1001,8 hPa 0,0 l/m 0,0 km/h (0 Bft) NW 325 0 min 0,000 mm 0 W/m 2,2 C 3,4 C 0,0 km/h (0 Bft) 100 %
09.01.2016 20:50 3,3 C 3,3 C 3,4 C 92 % 1002,0 hPa 0,0 l/m 0,1 km/h (0 Bft) NW 325 0 min 0,000 mm 0 W/m 2,1 C 3,3 C 1,6 km/h (1 Bft) 100 %
09.01.2016 21:00 3,1 C 3,1 C 3,3 C 92 % 1001,7 hPa 0,0 l/m 0,2 km/h (0 Bft) NW 325 0 min 0,000 mm 0 W/m 1,9 C 3,1 C 1,6 km/h (1 Bft) 100 %
09.01.2016 21:10 2,9 C 2,9 C 3,1 C 92 % 1001,7 hPa 0,0 l/m 0,0 km/h (0 Bft) NW 315 0 min 0,000 mm 0 W/m 1,7 C 2,9 C 1,6 km/h (1 Bft) 98 %
09.01.2016 21:20 2,8 C 2,8 C 2,9 C 92 % 1001,8 hPa 0,0 l/m 0,0 km/h (0 Bft) N 0 0 min 0,000 mm 0 W/m 1,6 C 2,8 C 0,0 km/h (0 Bft) 97 %
09.01.2016 21:30 2,6 C 2,6 C 2,8 C 92 % 1001,7 hPa 0,0 l/m 0,0 km/h (0 Bft) N 0 0 min 0,000 mm 0 W/m 1,4 C 2,6 C 0,0 km/h (0 Bft) 98 %
09.01.2016 21:40 2,3 C 2,3 C 2,6 C 92 % 1001,7 hPa 0,0 l/m 0,0 km/h (0 Bft) N 0 0 min 0,000 mm 0 W/m 1,1 C 2,3 C 0,0 km/h (0 Bft) 97 %
09.01.2016 21:50 2,1 C 2,1 C 2,3 C 92 % 1001,5 hPa 0,0 l/m 1,6 km/h (1 Bft) NW 315 0 min 0,000 mm 0 W/m 0,9 C 2,1 C 3,2 km/h (1 Bft) 98 %
09.01.2016 22:00 1,9 C 1,9 C 2,1 C 92 % 1001,5 hPa 0,0 l/m 0,0 km/h (0 Bft) NW 315 0 min 0,000 mm 0 W/m 0,7 C 1,9 C 1,6 km/h (1 Bft) 98 %
09.01.2016 22:10 1,8 C 1,8 C 1,9 C 92 % 1001,3 hPa 0,0 l/m 1,6 km/h (1 Bft) NW 315 0 min 0,000 mm 0 W/m 0,6 C 1,8 C 3,2 km/h (1 Bft) 98 %
09.01.2016 22:20 1,7 C 1,7 C 1,8 C 92 % 1001,2 hPa 0,0 l/m 1,6 km/h (1 Bft) NW 315 0 min 0,000 mm 0 W/m 0,5 C 1,7 C 3,2 km/h (1 Bft) 98 %
09.01.2016 22:30 1,8 C 1,7 C 1,8 C 92 % 1001,1 hPa 0,0 l/m 0,0 km/h (0 Bft) N 0 0 min 0,000 mm 0 W/m 0,6 C 1,8 C 0,0 km/h (0 Bft) 97 %
09.01.2016 22:40 1,4 C 1,4 C 1,8 C 92 % 1001,0 hPa 0,0 l/m 0,0 km/h (0 Bft) NW 315 0 min 0,000 mm 0 W/m 0,2 C 1,4 C 1,6 km/h (1 Bft) 98 %
09.01.2016 22:50 1,3 C 1,3 C 1,4 C 92 % 1001,1 hPa 0,0 l/m 0,0 km/h (0 Bft) N 0 0 min 0,000 mm 0 W/m 0,1 C 1,3 C 0,0 km/h (0 Bft) 97 %
09.01.2016 23:00 1,3 C 1,3 C 1,3 C 92 % 1001,1 hPa 0,0 l/m 0,0 km/h (0 Bft) N 0 0 min 0,000 mm 0 W/m 0,1 C 1,3 C 0,0 km/h (0 Bft) 98 %
09.01.2016 23:10 1,2 C 1,2 C 1,3 C 92 % 1001,2 hPa 0,0 l/m 0,0 km/h (0 Bft) NW 315 0 min 0,000 mm 0 W/m 0,0 C 1,2 C 3,2 km/h (1 Bft) 98 %
09.01.2016 23:20 1,2 C 1,1 C 1,2 C 92 % 1001,2 hPa 0,0 l/m 0,0 km/h (0 Bft) N 0 0 min 0,000 mm 0 W/m 0,0 C 1,2 C 0,0 km/h (0 Bft) 97 %
09.01.2016 23:30 1,2 C 1,1 C 1,2 C 92 % 1001,0 hPa 0,0 l/m 0,0 km/h (0 Bft) N 0 0 min 0,000 mm 0 W/m 0,0 C 1,2 C 0,0 km/h (0 Bft) 98 %
09.01.2016 23:40 1,2 C 1,2 C 1,2 C 92 % 1001,1 hPa 0,0 l/m 1,6 km/h (1 Bft) NW 315 0 min 0,000 mm 0 W/m 0,0 C 1,2 C 3,2 km/h (1 Bft) 97 %
09.01.2016 23:50 1,1 C 1,1 C 1,2 C 92 % 1001,0 hPa 0,0 l/m 0,0 km/h (0 Bft) NW 315 0 min 0,000 mm 0 W/m -0,1 C 1,1 C 3,2 km/h (1 Bft) 98 %
_ Min-Zeit 06:50 06:50 07:00 00:00 22:40 - 00:00 - - - - - 07:00 06:50 00:00 10:20
Minimum _ -1,1 C -1,1 C -1,1 C 91 % 1001,0 hPa - 0,0 km/h (0 Bft) - - - - - -2,4 C -1,1 C 0,0 km/h (0 Bft) 88 %
_ Max-Zeit 15:50 16:30 15:50 01:40 03:10 00:00 00:20 - - 00:00 14:00 12:10 16:20 16:20 00:20 00:20
Maximum _ 4,2 C 4,2 C 4,2 C 92 % 1004,5 hPa 0,0 l/m 1,6 km/h
NW (1 Bft)
- - 0 min 0,026 mm 86 W/m 3,0 C 4,2 C 4,8 km/h
NW (1 Bft)
100 %
Durchschnitt _ 1,3 C 1,2 C 1,3 C 92 % 1003,5 hPa #0,0 l/m 0,2 km/h (0 Bft) NW - #0 min. #0,152 mm 54 W/m 0,1 C 1,3 C 1,1 km/h (0 Bft) 99 %
PRIVATE WETTERSTATION BILLIGHEIM-ALLFELD - www.neckar-odenwald-wetter.de - Holger Sonntag